createdAt,value
2022-08-17T00:00:02.722Z,19.17
2022-08-17T00:00:34.672Z,19.18
2022-08-17T00:00:43.929Z,19.16
2022-08-17T00:00:49.364Z,19.13
2022-08-17T00:00:51.673Z,19.11
2022-08-17T00:00:55.748Z,19.11
2022-08-17T00:01:06.249Z,19.13
2022-08-17T00:01:16.300Z,19.11
2022-08-17T00:01:27.135Z,19.11
2022-08-17T00:01:52.342Z,19.11
2022-08-17T00:01:52.659Z,19.09
2022-08-17T00:01:59.564Z,19.07
2022-08-17T00:02:17.000Z,19.08
2022-08-17T00:02:26.183Z,19.07
2022-08-17T00:02:30.624Z,19.08
2022-08-17T00:02:49.911Z,19.07
2022-08-17T00:02:51.828Z,19.08
2022-08-17T00:03:03.612Z,19.10
2022-08-17T00:03:11.640Z,19.11
2022-08-17T00:03:23.629Z,19.12
2022-08-17T00:03:31.862Z,19.11
2022-08-17T00:03:41.771Z,19.12
2022-08-17T00:03:51.753Z,19.12
2022-08-17T00:04:02.101Z,19.12
2022-08-17T00:04:12.092Z,19.11
2022-08-17T00:04:22.254Z,19.12
2022-08-17T00:04:31.806Z,19.12
2022-08-17T00:04:47.065Z,19.12
2022-08-17T00:04:54.795Z,19.07
2022-08-17T00:05:03.322Z,19.10
2022-08-17T00:05:14.234Z,19.12
2022-08-17T00:05:25.242Z,19.11
2022-08-17T00:05:35.232Z,19.10
2022-08-17T00:05:45.232Z,19.11
2022-08-17T00:05:54.715Z,19.11
2022-08-17T00:06:05.244Z,19.11
2022-08-17T00:06:13.292Z,19.10
2022-08-17T00:06:25.394Z,19.13
2022-08-17T00:06:35.243Z,19.12
2022-08-17T00:06:45.240Z,19.13
2022-08-17T00:06:55.234Z,19.12
2022-08-17T00:07:05.232Z,19.12
2022-08-17T00:07:13.282Z,19.15
2022-08-17T00:07:23.298Z,19.17
2022-08-17T00:07:34.360Z,19.17
2022-08-17T00:07:45.213Z,19.18
2022-08-17T00:07:55.235Z,19.20
2022-08-17T00:08:05.213Z,19.21
2022-08-17T00:08:13.263Z,19.23
2022-08-17T00:08:23.283Z,19.24
2022-08-17T00:08:34.165Z,19.24
2022-08-17T00:08:45.225Z,19.24
2022-08-17T00:08:56.166Z,19.23
2022-08-17T00:09:03.290Z,19.20
2022-08-17T00:09:15.385Z,19.22
2022-08-17T00:09:24.745Z,19.19
2022-08-17T00:09:33.946Z,19.22
2022-08-17T00:09:43.276Z,19.24
2022-08-17T00:09:54.034Z,19.25
2022-08-17T00:10:05.226Z,19.26
2022-08-17T00:10:13.257Z,19.26
2022-08-17T00:10:25.229Z,19.29
2022-08-17T00:10:35.204Z,19.28
2022-08-17T00:10:45.197Z,19.29
2022-08-17T00:10:53.244Z,19.30
2022-08-17T00:11:05.236Z,19.32
2022-08-17T00:11:15.195Z,19.30
2022-08-17T00:11:23.243Z,19.32
2022-08-17T00:11:33.715Z,19.33
2022-08-17T00:11:43.716Z,19.32
2022-08-17T00:12:40.986Z,19.29
2022-08-17T00:12:41.040Z,19.29
2022-08-17T00:12:41.924Z,19.30
2022-08-17T00:12:42.767Z,19.29
2022-08-17T00:12:43.284Z,19.29
2022-08-17T00:12:48.659Z,19.30
2022-08-17T00:12:59.035Z,19.35
2022-08-17T00:13:09.054Z,19.36
2022-08-17T00:13:20.295Z,19.38
2022-08-17T00:13:30.324Z,19.38
2022-08-17T00:13:40.295Z,19.39
2022-08-17T00:13:49.085Z,19.40
2022-08-17T00:13:59.232Z,19.42
2022-08-17T00:14:08.390Z,19.42
2022-08-17T00:14:19.101Z,19.44
2022-08-17T00:14:29.106Z,19.44
2022-08-17T00:14:39.115Z,19.45
2022-08-17T00:14:49.135Z,19.46
2022-08-17T00:15:00.328Z,19.47
2022-08-17T00:15:10.696Z,19.46
2022-08-17T00:15:20.466Z,19.48
2022-08-17T00:15:29.156Z,19.49
2022-08-17T00:15:38.507Z,19.49
2022-08-17T00:15:49.176Z,19.49
2022-08-17T00:15:59.188Z,19.48
2022-08-17T00:16:08.504Z,19.49
2022-08-17T00:16:20.456Z,19.49
2022-08-17T00:16:50.448Z,19.43
2022-08-17T00:16:53.476Z,19.42
2022-08-17T00:16:56.273Z,19.41
2022-08-17T00:17:00.933Z,19.40
2022-08-17T00:17:12.772Z,19.43
2022-08-17T00:17:22.755Z,19.44
2022-08-17T00:17:32.736Z,19.45
2022-08-17T00:17:41.773Z,19.45
2022-08-17T00:17:50.798Z,19.46
2022-08-17T00:18:00.826Z,19.46
2022-08-17T00:18:53.928Z,19.35
2022-08-17T00:19:01.433Z,19.39
2022-08-17T00:19:02.015Z,19.37
2022-08-17T00:19:06.122Z,19.35
2022-08-17T00:19:06.808Z,19.45
2022-08-17T00:19:07.789Z,19.34
2022-08-17T00:19:11.355Z,19.32
2022-08-17T00:19:21.197Z,19.36
2022-08-17T00:19:31.216Z,19.37
2022-08-17T00:19:41.275Z,19.37
2022-08-17T00:19:53.173Z,19.35
2022-08-17T00:20:01.207Z,19.33
2022-08-17T00:20:11.217Z,19.34
2022-08-17T00:20:23.369Z,19.33
2022-08-17T00:20:35.045Z,19.28
2022-08-17T00:20:44.768Z,19.29
2022-08-17T00:20:52.835Z,19.30
2022-08-17T00:21:02.948Z,19.32
2022-08-17T00:21:14.764Z,19.30
2022-08-17T00:21:25.481Z,19.26
2022-08-17T00:22:29.849Z,19.23
2022-08-17T00:22:30.734Z,19.18
2022-08-17T00:22:31.671Z,19.09
2022-08-17T00:22:33.171Z,19.16
2022-08-17T00:22:34.232Z,19.13
2022-08-17T00:22:34.376Z,19.11
2022-08-17T00:22:37.199Z,19.09
2022-08-17T00:22:49.375Z,19.11
2022-08-17T00:22:57.289Z,19.11
2022-08-17T00:23:07.350Z,19.12
2022-08-17T00:23:19.231Z,19.11
2022-08-17T00:23:27.298Z,19.09
2022-08-17T00:23:39.250Z,19.09
2022-08-17T00:23:50.801Z,19.02
2022-08-17T00:23:59.308Z,19.05
2022-08-17T00:24:09.583Z,19.06
2022-08-17T00:24:20.769Z,19.05
2022-08-17T00:24:29.589Z,19.04
2022-08-17T00:24:39.595Z,19.04
2022-08-17T00:24:49.611Z,19.03
2022-08-17T00:24:59.608Z,19.04
2022-08-17T00:25:10.981Z,19.03
2022-08-17T00:25:19.629Z,19.03
2022-08-17T00:25:29.641Z,19.02
2022-08-17T00:25:39.300Z,19.02
2022-08-17T00:25:49.650Z,19.02
2022-08-17T00:25:59.661Z,19.00
2022-08-17T00:26:09.673Z,18.98
2022-08-17T00:26:43.190Z,18.94
2022-08-17T00:26:44.341Z,18.98
2022-08-17T00:26:44.770Z,18.91
2022-08-17T00:26:49.349Z,18.90
2022-08-17T00:27:01.229Z,18.92
2022-08-17T00:27:09.250Z,18.91
2022-08-17T00:27:19.279Z,18.92
2022-08-17T00:27:29.269Z,18.91
2022-08-17T00:27:39.260Z,18.90
2022-08-17T00:27:51.210Z,18.90
2022-08-17T00:28:01.199Z,18.89
2022-08-17T00:28:11.195Z,18.88
2022-08-17T00:28:19.772Z,18.88
2022-08-17T00:28:31.183Z,18.87
2022-08-17T00:28:41.203Z,18.84
2022-08-17T00:28:51.880Z,18.84
2022-08-17T00:28:59.298Z,18.82
2022-08-17T00:29:09.834Z,18.84
2022-08-17T00:29:20.325Z,18.81
2022-08-17T00:29:30.361Z,18.84
2022-08-17T00:29:39.421Z,18.84
2022-08-17T00:29:49.438Z,18.86
2022-08-17T00:30:01.372Z,18.86
2022-08-17T00:30:11.382Z,18.86
2022-08-17T00:30:21.360Z,18.88
2022-08-17T00:30:31.362Z,18.89
2022-08-17T00:30:52.810Z,18.85
2022-08-17T00:30:53.598Z,18.86
2022-08-17T00:31:02.920Z,18.91
2022-08-17T00:31:13.425Z,18.92
2022-08-17T00:31:21.502Z,18.92
2022-08-17T00:31:33.448Z,18.95
2022-08-17T00:31:41.472Z,18.95
2022-08-17T00:31:53.455Z,18.98
2022-08-17T00:33:12.069Z,18.97
2022-08-17T00:33:12.123Z,18.96
2022-08-17T00:33:12.228Z,18.96
2022-08-17T00:33:14.003Z,18.97
2022-08-17T00:33:14.104Z,18.97
2022-08-17T00:33:15.711Z,18.98
2022-08-17T00:33:17.129Z,18.99
2022-08-17T00:33:22.741Z,18.98
2022-08-17T00:33:26.441Z,19.04
2022-08-17T00:33:36.111Z,19.06
2022-08-17T00:33:48.071Z,19.08
2022-08-17T00:33:58.062Z,19.09
2022-08-17T00:34:08.050Z,19.10
2022-08-17T00:34:16.112Z,19.11
2022-08-17T00:34:28.072Z,19.14
2022-08-17T00:34:38.462Z,19.10
2022-08-17T00:34:47.952Z,19.12
2022-08-17T00:34:58.452Z,19.14
2022-08-17T00:35:08.451Z,19.16
2022-08-17T00:35:18.497Z,19.17
2022-08-17T00:35:27.959Z,19.17
2022-08-17T00:35:36.492Z,19.20
2022-08-17T00:35:48.472Z,19.21
2022-08-17T00:35:56.496Z,19.21
2022-08-17T00:36:07.444Z,19.22
2022-08-17T00:36:16.512Z,19.22
2022-08-17T00:36:28.013Z,19.23
2022-08-17T00:36:36.512Z,19.22
2022-08-17T00:36:46.566Z,19.23
2022-08-17T00:36:57.191Z,19.22
2022-08-17T00:37:08.433Z,19.22
2022-08-17T00:37:17.205Z,19.22
2022-08-17T00:37:28.442Z,19.23
2022-08-17T00:37:36.481Z,19.21
2022-08-17T00:37:46.463Z,19.22
2022-08-17T00:37:56.473Z,19.21
2022-08-17T00:38:06.462Z,19.20
2022-08-17T00:38:18.413Z,19.19
2022-08-17T00:38:26.467Z,19.17
2022-08-17T00:38:36.503Z,19.17
2022-08-17T00:38:46.473Z,19.16
2022-08-17T00:38:56.464Z,19.16
2022-08-17T00:39:08.406Z,19.15
2022-08-17T00:39:16.472Z,19.13
2022-08-17T00:39:26.501Z,19.15
2022-08-17T00:39:38.455Z,19.15
2022-08-17T00:39:46.534Z,19.13
2022-08-17T00:39:56.518Z,19.13
2022-08-17T00:40:08.521Z,19.12
2022-08-17T00:40:18.413Z,19.10
2022-08-17T00:40:39.842Z,19.05
2022-08-17T00:40:44.586Z,19.10
2022-08-17T00:40:49.020Z,19.04
2022-08-17T00:40:59.223Z,19.07
2022-08-17T00:41:08.385Z,19.05
2022-08-17T00:41:17.995Z,19.05
2022-08-17T00:41:28.410Z,19.03
2022-08-17T00:41:42.596Z,19.00
2022-08-17T00:41:47.994Z,18.97
2022-08-17T00:41:58.903Z,18.98
2022-08-17T00:42:08.437Z,18.96
2022-08-17T00:42:18.464Z,18.97
2022-08-17T00:42:31.077Z,18.96
2022-08-17T00:42:38.467Z,18.93
2022-08-17T00:42:48.552Z,18.94
2022-08-17T00:42:58.016Z,18.94
2022-08-17T00:43:08.235Z,18.94
2022-08-17T00:43:18.088Z,18.94
2022-08-17T00:43:29.995Z,18.93
2022-08-17T00:43:39.986Z,18.91
2022-08-17T00:43:48.515Z,18.92
2022-08-17T00:43:58.515Z,18.94
2022-08-17T00:44:09.945Z,18.94
2022-08-17T00:44:19.936Z,18.94
2022-08-17T00:44:30.387Z,18.94
2022-08-17T00:44:37.980Z,18.92
2022-08-17T00:44:48.893Z,18.93
2022-08-17T00:44:57.997Z,18.93
2022-08-17T00:45:07.997Z,18.93
2022-08-17T00:45:19.966Z,18.93
2022-08-17T00:45:28.585Z,18.93
2022-08-17T00:45:37.966Z,18.95
2022-08-17T00:45:48.020Z,18.95
2022-08-17T00:45:57.987Z,18.94
2022-08-17T00:46:09.941Z,18.94
2022-08-17T00:46:18.740Z,18.94
2022-08-17T00:46:28.007Z,18.95
2022-08-17T00:46:39.915Z,18.95
2022-08-17T00:46:49.447Z,18.94
2022-08-17T00:46:58.006Z,18.95
2022-08-17T00:47:07.956Z,18.96
2022-08-17T00:47:18.006Z,18.95
2022-08-17T00:47:28.066Z,18.96
2022-08-17T00:47:39.065Z,18.96
2022-08-17T00:47:48.065Z,18.96
2022-08-17T00:47:58.077Z,18.97
2022-08-17T00:48:28.965Z,18.98
2022-08-17T00:48:29.028Z,18.94
2022-08-17T00:48:31.079Z,18.92
2022-08-17T00:48:43.016Z,18.97
2022-08-17T00:48:52.987Z,18.97
2022-08-17T00:49:01.058Z,18.98
2022-08-17T00:49:13.017Z,19.00
2022-08-17T00:49:22.039Z,18.98
2022-08-17T00:49:32.088Z,19.00
2022-08-17T00:49:41.820Z,18.99
2022-08-17T00:49:51.802Z,18.99
2022-08-17T00:50:01.382Z,18.99
2022-08-17T00:50:11.824Z,18.99
2022-08-17T00:50:22.988Z,18.99
2022-08-17T00:50:31.837Z,18.97
2022-08-17T00:50:42.980Z,18.98
2022-08-17T00:50:51.029Z,18.97
2022-08-17T00:51:01.097Z,18.98
2022-08-17T00:51:11.861Z,18.98
2022-08-17T00:51:21.321Z,18.96
2022-08-17T00:51:32.969Z,18.96
2022-08-17T00:51:41.849Z,18.95
2022-08-17T00:51:51.890Z,18.95
2022-08-17T00:52:01.017Z,18.95
2022-08-17T00:52:12.082Z,18.95
2022-08-17T00:52:21.039Z,18.93
2022-08-17T00:52:31.610Z,18.94
2022-08-17T00:52:42.007Z,18.92
2022-08-17T00:52:52.969Z,18.91
2022-08-17T00:53:02.959Z,18.91
2022-08-17T00:53:11.957Z,18.91
2022-08-17T00:53:22.978Z,18.91
2022-08-17T00:53:31.011Z,18.91
2022-08-17T00:53:41.928Z,18.92
2022-08-17T00:53:53.002Z,18.90
2022-08-17T00:54:02.960Z,18.91
2022-08-17T00:54:11.014Z,18.91
2022-08-17T00:54:22.952Z,18.92
2022-08-17T00:54:32.971Z,18.91
2022-08-17T00:54:43.521Z,18.87
2022-08-17T00:54:52.574Z,18.89
2022-08-17T00:55:02.588Z,18.91
2022-08-17T00:55:14.536Z,18.91
2022-08-17T00:55:22.584Z,18.91
2022-08-17T00:55:33.491Z,18.93
2022-08-17T00:55:44.510Z,18.92
2022-08-17T00:55:54.513Z,18.91
2022-08-17T00:56:02.566Z,18.91
2022-08-17T00:56:12.552Z,18.91
2022-08-17T00:56:22.609Z,18.91
2022-08-17T00:56:34.491Z,18.90
2022-08-17T00:56:42.562Z,18.89
2022-08-17T00:56:52.572Z,18.92
2022-08-17T00:57:02.571Z,18.92
2022-08-17T00:57:13.333Z,18.92
2022-08-17T00:57:24.510Z,18.92
2022-08-17T00:57:32.689Z,18.92
2022-08-17T00:57:42.721Z,18.94
2022-08-17T00:57:55.415Z,18.93
2022-08-17T00:58:04.522Z,18.91
2022-08-17T00:58:14.501Z,18.91
2022-08-17T00:58:35.821Z,18.92
2022-08-17T00:58:36.800Z,18.88
2022-08-17T00:58:46.033Z,18.85
2022-08-17T00:58:54.085Z,18.86
2022-08-17T00:59:04.209Z,18.88
2022-08-17T00:59:16.045Z,18.86
2022-08-17T00:59:24.085Z,18.85
2022-08-17T00:59:34.136Z,18.86
2022-08-17T00:59:46.042Z,18.86
2022-08-17T01:00:02.228Z,18.80
2022-08-17T01:00:06.769Z,18.77
2022-08-17T01:00:17.773Z,18.80
2022-08-17T01:00:27.792Z,18.80
2022-08-17T01:00:35.810Z,18.80
2022-08-17T01:00:46.662Z,18.79
2022-08-17T01:00:57.827Z,18.76
2022-08-17T01:01:05.904Z,18.72
2022-08-17T01:01:21.176Z,18.73
2022-08-17T01:01:26.797Z,18.67
2022-08-17T01:01:35.830Z,18.69
2022-08-17T01:01:45.856Z,18.70
2022-08-17T01:01:57.793Z,18.70
2022-08-17T01:02:07.764Z,18.69
2022-08-17T01:02:15.804Z,18.71
2022-08-17T01:02:25.938Z,18.73
2022-08-17T01:02:42.170Z,18.73
2022-08-17T01:02:46.643Z,18.70
2022-08-17T01:02:55.961Z,18.72
2022-08-17T01:03:05.964Z,18.73
2022-08-17T01:03:17.763Z,18.72
2022-08-17T01:03:26.451Z,18.72
2022-08-17T01:03:36.470Z,18.73
2022-08-17T01:03:47.731Z,18.72
2022-08-17T01:03:59.751Z,18.71
2022-08-17T01:04:07.237Z,18.68
2022-08-17T01:04:15.800Z,18.68
2022-08-17T01:04:25.831Z,18.70
2022-08-17T01:04:35.928Z,18.69
2022-08-17T01:04:45.931Z,18.69
2022-08-17T01:04:56.517Z,18.69
2022-08-17T01:05:05.768Z,18.69
2022-08-17T01:05:18.639Z,18.70
2022-08-17T01:05:27.742Z,18.67
2022-08-17T01:05:36.554Z,18.66
2022-08-17T01:05:45.767Z,18.68
2022-08-17T01:05:56.600Z,18.70
2022-08-17T01:06:05.900Z,18.72
2022-08-17T01:06:16.587Z,18.71
2022-08-17T01:06:27.736Z,18.71
2022-08-17T01:06:35.778Z,18.72
2022-08-17T01:06:46.606Z,18.72
2022-08-17T01:06:56.630Z,18.71
2022-08-17T01:07:05.748Z,18.70
2022-08-17T01:07:17.727Z,18.69
2022-08-17T01:07:27.739Z,18.67
2022-08-17T01:07:38.013Z,18.66
2022-08-17T01:07:47.869Z,18.64
2022-08-17T01:07:56.680Z,18.64
2022-08-17T01:08:08.410Z,18.65
2022-08-17T01:08:17.795Z,18.60
2022-08-17T01:08:26.066Z,18.61
2022-08-17T01:08:37.558Z,18.63
2022-08-17T01:08:45.866Z,18.62
2022-08-17T01:08:57.642Z,18.64
2022-08-17T01:09:07.834Z,18.63
2022-08-17T01:09:17.814Z,18.62
2022-08-17T01:09:25.889Z,18.63
2022-08-17T01:09:36.218Z,18.64
2022-08-17T01:09:47.797Z,18.64
2022-08-17T01:09:56.764Z,18.64
2022-08-17T01:10:05.830Z,18.67
2022-08-17T01:10:58.729Z,18.64
2022-08-17T01:10:58.766Z,18.62
2022-08-17T01:10:58.921Z,18.62
2022-08-17T01:10:59.041Z,18.68
2022-08-17T01:11:01.809Z,18.62
2022-08-17T01:11:10.241Z,18.62
2022-08-17T01:11:18.312Z,18.66
2022-08-17T01:11:30.257Z,18.68
2022-08-17T01:11:40.229Z,18.68
2022-08-17T01:11:50.240Z,18.69
2022-08-17T01:11:58.298Z,18.71
2022-08-17T01:12:10.247Z,18.73
2022-08-17T01:12:18.300Z,18.69
2022-08-17T01:12:28.307Z,18.71
2022-08-17T01:12:40.266Z,18.70
2022-08-17T01:12:49.089Z,18.70
2022-08-17T01:13:00.249Z,18.71
2022-08-17T01:13:08.269Z,18.71
2022-08-17T01:13:18.316Z,18.72
2022-08-17T01:13:28.308Z,18.72
2022-08-17T01:13:41.361Z,18.72
2022-08-17T01:13:49.719Z,18.68
2022-08-17T01:13:59.188Z,18.70
2022-08-17T01:14:10.238Z,18.70
2022-08-17T01:14:18.279Z,18.70
2022-08-17T01:14:30.279Z,18.72
2022-08-17T01:14:38.291Z,18.70
2022-08-17T01:14:50.229Z,18.73
2022-08-17T01:15:00.239Z,18.72
2022-08-17T01:15:10.209Z,18.72
2022-08-17T01:15:20.235Z,18.73
2022-08-17T01:15:29.018Z,18.74
2022-08-17T01:15:39.033Z,18.75
2022-08-17T01:15:49.052Z,18.75
2022-08-17T01:15:59.051Z,18.73
2022-08-17T01:16:09.054Z,18.73
2022-08-17T01:16:19.075Z,18.74
2022-08-17T01:16:29.079Z,18.74
2022-08-17T01:16:38.259Z,18.75
2022-08-17T01:16:49.087Z,18.75
2022-08-17T01:16:59.106Z,18.74
2022-08-17T01:17:10.194Z,18.76
2022-08-17T01:17:19.120Z,18.76
2022-08-17T01:17:28.311Z,18.76
2022-08-17T01:17:38.249Z,18.77
2022-08-17T01:17:49.279Z,18.76
2022-08-17T01:17:59.140Z,18.76
2022-08-17T01:18:10.180Z,18.77
2022-08-17T01:18:19.170Z,18.76
2022-08-17T01:18:29.242Z,18.77
2022-08-17T01:18:40.200Z,18.76
2022-08-17T01:18:48.253Z,18.76
2022-08-17T01:19:00.253Z,18.77
2022-08-17T01:19:08.240Z,18.74
2022-08-17T01:19:19.159Z,18.75
2022-08-17T01:19:30.202Z,18.74
2022-08-17T01:19:40.201Z,18.73
2022-08-17T01:19:48.230Z,18.72
2022-08-17T01:19:58.250Z,18.74
2022-08-17T01:20:09.080Z,18.71
2022-08-17T01:20:18.266Z,18.69
2022-08-17T01:20:30.169Z,18.69
2022-08-17T01:20:43.126Z,18.62
2022-08-17T01:20:52.800Z,18.59
2022-08-17T01:21:01.332Z,18.62
2022-08-17T01:21:11.378Z,18.63
2022-08-17T01:21:23.323Z,18.62
2022-08-17T01:21:33.281Z,18.60
2022-08-17T01:21:41.373Z,18.59
2022-08-17T01:21:51.353Z,18.61
2022-08-17T01:22:01.366Z,18.59
2022-08-17T01:22:11.347Z,18.59
2022-08-17T01:22:21.345Z,18.59
2022-08-17T01:22:32.180Z,18.58
2022-08-17T01:22:41.334Z,18.57
2022-08-17T01:22:51.581Z,18.56
2022-08-17T01:23:03.293Z,18.55
2022-08-17T01:23:13.271Z,18.54
2022-08-17T01:23:22.900Z,18.50
2022-08-17T01:23:33.301Z,18.53
2022-08-17T01:23:42.858Z,18.52
2022-08-17T01:23:54.839Z,18.52
2022-08-17T01:24:03.310Z,18.51
2022-08-17T01:24:13.312Z,18.51
2022-08-17T01:24:22.853Z,18.51
2022-08-17T01:24:34.906Z,18.51
2022-08-17T01:24:42.872Z,18.50
2022-08-17T01:24:52.862Z,18.52
2022-08-17T01:25:03.350Z,18.51
2022-08-17T01:25:13.335Z,18.52
2022-08-17T01:25:23.343Z,18.52
2022-08-17T01:25:33.345Z,18.52
2022-08-17T01:25:43.351Z,18.50
2022-08-17T01:25:52.941Z,18.46
2022-08-17T01:26:03.156Z,18.48
2022-08-17T01:26:13.359Z,18.48
2022-08-17T01:26:23.362Z,18.48
2022-08-17T01:26:32.956Z,18.48
2022-08-17T01:26:43.299Z,18.49
2022-08-17T01:26:53.369Z,18.49
2022-08-17T01:27:03.372Z,18.46
2022-08-17T01:27:12.953Z,18.44
2022-08-17T01:27:23.380Z,18.47
2022-08-17T01:27:32.963Z,18.48
2022-08-17T01:27:43.011Z,18.49
2022-08-17T01:27:52.995Z,18.49
2022-08-17T01:28:03.403Z,18.48
2022-08-17T01:28:33.405Z,18.47
2022-08-17T01:28:33.495Z,18.41
2022-08-17T01:28:54.491Z,18.37
2022-08-17T01:28:55.110Z,18.39
2022-08-17T01:28:55.447Z,18.35
2022-08-17T01:29:03.412Z,18.34
2022-08-17T01:29:13.415Z,18.37
2022-08-17T01:29:24.947Z,18.37
2022-08-17T01:29:34.947Z,18.37
2022-08-17T01:29:44.960Z,18.36
2022-08-17T01:29:54.943Z,18.35
2022-08-17T01:30:04.023Z,18.35
2022-08-17T01:30:56.813Z,18.25
2022-08-17T01:30:58.419Z,18.34
2022-08-17T01:30:58.561Z,18.24
2022-08-17T01:30:58.760Z,18.26
2022-08-17T01:30:58.895Z,18.29
2022-08-17T01:31:05.111Z,18.23
2022-08-17T01:31:15.103Z,18.26
2022-08-17T01:31:25.485Z,18.26
2022-08-17T01:31:37.044Z,18.26
2022-08-17T01:31:47.077Z,18.24
2022-08-17T01:31:55.097Z,18.24
2022-08-17T01:32:07.064Z,18.25
2022-08-17T01:32:17.061Z,18.24
2022-08-17T01:32:25.104Z,18.25
2022-08-17T01:32:35.105Z,18.27
2022-08-17T01:32:45.106Z,18.26
2022-08-17T01:32:55.145Z,18.27
2022-08-17T01:33:06.035Z,18.27
2022-08-17T01:33:17.034Z,18.26
2022-08-17T01:33:25.095Z,18.27
2022-08-17T01:33:37.045Z,18.29
2022-08-17T01:33:47.044Z,18.29
2022-08-17T01:33:55.145Z,18.30
2022-08-17T01:34:07.025Z,18.31
2022-08-17T01:34:17.038Z,18.31
2022-08-17T01:34:31.576Z,18.32
2022-08-17T01:34:38.085Z,18.29
2022-08-17T01:34:50.559Z,18.29
2022-08-17T01:34:59.660Z,18.29
2022-08-17T01:35:09.629Z,18.32
2022-08-17T01:35:19.614Z,18.36
2022-08-17T01:35:28.855Z,18.36
2022-08-17T01:35:37.756Z,18.38
2022-08-17T01:35:49.615Z,18.39
2022-08-17T01:35:58.019Z,18.40
2022-08-17T01:36:08.025Z,18.42
2022-08-17T01:36:18.017Z,18.43
2022-08-17T01:36:28.031Z,18.44
2022-08-17T01:36:38.036Z,18.44
2022-08-17T01:36:48.054Z,18.45
2022-08-17T01:36:58.064Z,18.44
2022-08-17T01:37:07.728Z,18.46
2022-08-17T01:37:18.066Z,18.47
2022-08-17T01:37:28.076Z,18.48
2022-08-17T01:37:39.604Z,18.48
2022-08-17T01:37:47.926Z,18.47
2022-08-17T01:37:58.106Z,18.49
2022-08-17T01:38:07.806Z,18.49
2022-08-17T01:38:18.107Z,18.50
2022-08-17T01:38:27.748Z,18.46
2022-08-17T01:38:38.153Z,18.48
2022-08-17T01:38:48.149Z,18.47
2022-08-17T01:38:58.146Z,18.46
2022-08-17T01:39:07.684Z,18.47
2022-08-17T01:39:19.646Z,18.47
2022-08-17T01:39:27.736Z,18.45
2022-08-17T01:39:39.775Z,18.47
2022-08-17T01:39:49.688Z,18.46
2022-08-17T01:39:57.754Z,18.46
2022-08-17T01:40:07.766Z,18.48
2022-08-17T01:40:17.707Z,18.47
2022-08-17T01:40:29.647Z,18.48
2022-08-17T01:40:37.692Z,18.46
2022-08-17T01:40:49.657Z,18.48
2022-08-17T01:41:00.347Z,18.44
2022-08-17T01:41:10.131Z,18.47
2022-08-17T01:41:19.569Z,18.48
2022-08-17T01:41:29.268Z,18.48
2022-08-17T01:41:39.259Z,18.49
2022-08-17T01:41:51.290Z,18.49
2022-08-17T01:42:01.287Z,18.45
2022-08-17T01:42:10.832Z,18.48
2022-08-17T01:42:20.868Z,18.45
2022-08-17T01:42:32.797Z,18.47
2022-08-17T01:42:42.845Z,18.47
2022-08-17T01:42:51.835Z,18.48
2022-08-17T01:43:02.789Z,18.49
2022-08-17T01:43:12.787Z,18.49
2022-08-17T01:43:22.789Z,18.49
2022-08-17T01:43:32.779Z,18.48
2022-08-17T01:43:40.826Z,18.47
2022-08-17T01:43:52.790Z,18.47
2022-08-17T01:44:02.817Z,18.45
2022-08-17T01:44:10.826Z,18.45
2022-08-17T01:44:22.788Z,18.45
2022-08-17T01:44:31.611Z,18.41
2022-08-17T01:44:40.819Z,18.42
2022-08-17T01:44:52.808Z,18.42
2022-08-17T01:45:00.817Z,18.38
2022-08-17T01:45:12.779Z,18.39
2022-08-17T01:45:21.779Z,18.36
2022-08-17T01:45:30.825Z,18.35
2022-08-17T01:45:40.819Z,18.34
2022-08-17T01:46:03.551Z,18.32
2022-08-17T01:46:04.033Z,18.24
2022-08-17T01:46:12.759Z,18.26
2022-08-17T01:46:22.388Z,18.26
2022-08-17T01:46:32.509Z,18.26
2022-08-17T01:46:42.518Z,18.24
2022-08-17T01:46:54.290Z,18.24
2022-08-17T01:47:02.547Z,18.23
2022-08-17T01:47:14.293Z,18.24
2022-08-17T01:47:24.298Z,18.24
2022-08-17T01:47:32.549Z,18.25
2022-08-17T01:47:42.570Z,18.20
2022-08-17T01:47:52.569Z,18.24
2022-08-17T01:48:02.589Z,18.25
2022-08-17T01:48:14.279Z,18.25
2022-08-17T01:48:24.300Z,18.24
2022-08-17T01:48:32.610Z,18.24
2022-08-17T01:48:42.609Z,18.25
2022-08-17T01:48:54.282Z,18.25
2022-08-17T01:49:02.629Z,18.22
2022-08-17T01:49:14.280Z,18.22
2022-08-17T01:49:24.293Z,18.20
2022-08-17T01:49:34.270Z,18.20
2022-08-17T01:49:44.280Z,18.19
2022-08-17T01:49:54.280Z,18.20
2022-08-17T01:50:05.439Z,18.21
2022-08-17T01:50:12.320Z,18.18
2022-08-17T01:50:22.540Z,18.19
2022-08-17T01:50:34.261Z,18.17
2022-08-17T01:50:44.282Z,18.17
2022-08-17T01:50:53.301Z,18.17
2022-08-17T01:51:02.333Z,18.17
2022-08-17T01:51:14.279Z,18.17
2022-08-17T01:51:24.300Z,18.15
2022-08-17T01:51:33.910Z,18.14
2022-08-17T01:51:44.269Z,18.13
2022-08-17T01:51:54.262Z,18.12
2022-08-17T01:52:04.260Z,18.12
2022-08-17T01:52:14.268Z,18.11
2022-08-17T01:52:22.310Z,18.12
2022-08-17T01:52:34.261Z,18.13
2022-08-17T01:52:44.260Z,18.12
2022-08-17T01:52:54.264Z,18.12
2022-08-17T01:53:04.269Z,18.13
2022-08-17T01:53:12.309Z,18.13
2022-08-17T01:53:22.339Z,18.14
2022-08-17T01:53:34.259Z,18.13
2022-08-17T01:53:44.250Z,18.12
2022-08-17T01:53:52.503Z,18.12
2022-08-17T01:54:03.254Z,18.14
2022-08-17T01:54:14.253Z,18.13
2022-08-17T01:54:22.300Z,18.14
2022-08-17T01:54:32.319Z,18.15
2022-08-17T01:54:44.251Z,18.15
2022-08-17T01:54:54.242Z,18.16
2022-08-17T01:55:02.582Z,18.16
2022-08-17T01:55:13.141Z,18.17
2022-08-17T01:55:27.284Z,18.16
2022-08-17T01:55:34.234Z,18.11
2022-08-17T01:55:42.622Z,18.13
2022-08-17T01:55:52.627Z,18.16
2022-08-17T01:56:02.561Z,18.16
2022-08-17T01:56:14.212Z,18.16
2022-08-17T01:56:24.252Z,18.15
2022-08-17T01:56:32.674Z,18.16
2022-08-17T01:56:42.424Z,18.15
2022-08-17T01:56:52.681Z,18.14
2022-08-17T01:57:02.700Z,18.13
2022-08-17T01:57:12.292Z,18.12
2022-08-17T01:57:22.303Z,18.11
2022-08-17T01:57:32.731Z,18.10
2022-08-17T01:57:42.741Z,18.10
2022-08-17T01:57:52.748Z,18.09
2022-08-17T01:58:02.762Z,18.08
2022-08-17T01:58:12.769Z,18.06
2022-08-17T01:58:23.091Z,18.06
2022-08-17T01:58:32.801Z,18.07
2022-08-17T01:58:42.809Z,18.05
2022-08-17T01:58:53.042Z,18.05
2022-08-17T01:59:02.827Z,18.04
2022-08-17T01:59:14.203Z,18.04
2022-08-17T01:59:22.273Z,18.01
2022-08-17T01:59:32.864Z,18.01
2022-08-17T01:59:44.201Z,18.02
2022-08-17T01:59:53.206Z,18.01
2022-08-17T02:00:04.202Z,18.03
2022-08-17T02:00:12.255Z,18.04
2022-08-17T02:00:23.162Z,18.05
2022-08-17T02:00:47.077Z,18.01
2022-08-17T02:00:59.870Z,18.03
2022-08-17T02:01:00.732Z,17.99
2022-08-17T02:01:02.622Z,18.00
2022-08-17T02:01:12.597Z,18.03
2022-08-17T02:01:24.628Z,18.03
2022-08-17T02:01:34.579Z,18.03
2022-08-17T02:01:44.503Z,18.04
2022-08-17T02:01:52.584Z,18.04
2022-08-17T02:02:04.494Z,18.05
2022-08-17T02:02:15.418Z,18.04
2022-08-17T02:02:30.402Z,18.01
2022-08-17T02:02:36.574Z,18.01
2022-08-17T02:02:46.548Z,18.03
2022-08-17T02:02:56.542Z,18.04
2022-08-17T02:03:06.077Z,18.04
2022-08-17T02:03:16.543Z,18.05
2022-08-17T02:03:24.595Z,18.05
2022-08-17T02:03:36.543Z,18.06
2022-08-17T02:03:56.314Z,18.05
2022-08-17T02:04:01.215Z,18.02
2022-08-17T02:04:08.389Z,18.00
2022-08-17T02:04:16.383Z,18.03
2022-08-17T02:04:26.393Z,18.05
2022-08-17T02:04:38.344Z,18.05
2022-08-17T02:04:46.394Z,18.04
2022-08-17T02:04:58.387Z,18.06
2022-08-17T02:05:08.355Z,18.04
2022-08-17T02:05:16.444Z,18.04
2022-08-17T02:05:28.354Z,18.06
2022-08-17T02:05:38.342Z,18.04
2022-08-17T02:05:48.334Z,18.04
2022-08-17T02:05:58.371Z,18.03
2022-08-17T02:06:06.443Z,18.02
2022-08-17T02:06:27.658Z,17.98
2022-08-17T02:06:27.906Z,17.99
2022-08-17T02:06:45.002Z,18.00
2022-08-17T02:06:53.138Z,17.99
2022-08-17T02:06:58.365Z,17.99
2022-08-17T02:07:06.493Z,18.02
2022-08-17T02:07:18.324Z,18.03
2022-08-17T02:07:29.878Z,18.00
2022-08-17T02:07:59.383Z,18.02
2022-08-17T02:08:00.064Z,18.00
2022-08-17T02:08:00.878Z,17.98
2022-08-17T02:08:20.029Z,18.02
2022-08-17T02:08:20.329Z,18.01
2022-08-17T02:08:37.129Z,18.04
2022-08-17T02:09:02.534Z,18.02
2022-08-17T02:09:02.795Z,18.01
2022-08-17T02:09:02.992Z,18.00
2022-08-17T02:09:17.046Z,18.01
2022-08-17T02:09:23.318Z,18.02
2022-08-17T02:09:32.215Z,18.01
2022-08-17T02:09:42.247Z,18.06
2022-08-17T02:09:52.826Z,18.08